createdAt,value
2023-03-26T00:03:02.115Z,53.04
2023-03-26T00:07:55.169Z,53.17
2023-03-26T00:12:47.296Z,52.91
2023-03-26T00:17:40.691Z,53.22
2023-03-26T00:22:34.583Z,53.03
2023-03-26T00:27:28.101Z,53.13
2023-03-26T00:32:19.856Z,53.22
2023-03-26T00:37:14.902Z,53.57
2023-03-26T00:42:09.132Z,53.74
2023-03-26T00:47:02.549Z,52.96
2023-03-26T00:51:54.846Z,53.45
2023-03-26T00:56:48.138Z,53.41
2023-03-26T01:01:41.396Z,53.47
2023-03-26T01:06:37.870Z,53.64
2023-03-26T01:11:33.375Z,53.45
2023-03-26T01:16:45.380Z,53.71
2023-03-26T01:21:39.267Z,53.23
2023-03-26T01:27:05.019Z,53.94
2023-03-26T01:32:27.824Z,53.84
2023-03-26T01:37:33.304Z,53.87
2023-03-26T01:42:48.069Z,53.71
2023-03-26T01:47:42.320Z,53.81
2023-03-26T01:52:36.040Z,53.56
2023-03-26T01:57:44.117Z,53.77
2023-03-26T02:02:44.584Z,55.01
2023-03-26T02:07:59.739Z,55.07
2023-03-26T02:12:52.381Z,56.30
2023-03-26T02:17:45.802Z,55.97
2023-03-26T02:22:45.652Z,55.98
2023-03-26T02:27:41.317Z,56.31
2023-03-26T02:32:37.009Z,55.93
2023-03-26T02:37:31.264Z,56.25
2023-03-26T02:42:33.495Z,55.90
2023-03-26T02:47:27.665Z,56.29
2023-03-26T02:52:40.467Z,56.12
2023-03-26T02:57:33.628Z,56.12
2023-03-26T03:02:44.529Z,55.90
2023-03-26T03:07:50.214Z,55.57
2023-03-26T03:12:42.864Z,55.59
2023-03-26T03:17:36.656Z,55.57
2023-03-26T03:22:34.531Z,55.65
2023-03-26T03:27:27.206Z,55.58
2023-03-26T03:32:32.174Z,55.58
2023-03-26T03:37:28.647Z,54.89
2023-03-26T03:42:23.676Z,54.95
2023-03-26T03:47:20.502Z,54.49
2023-03-26T03:52:13.990Z,54.76
2023-03-26T03:57:09.817Z,54.34
2023-03-26T04:02:06.185Z,54.23
2023-03-26T04:07:06.798Z,53.82
2023-03-26T04:12:19.851Z,53.54
2023-03-26T04:17:24.057Z,53.61
2023-03-26T04:22:22.052Z,53.58
2023-03-26T04:27:28.559Z,53.30
2023-03-26T04:32:34.432Z,52.81
2023-03-26T04:37:39.609Z,52.56
2023-03-26T04:42:58.937Z,52.00
2023-03-26T04:48:15.572Z,52.03
2023-03-26T04:53:11.157Z,52.03
2023-03-26T04:58:33.326Z,51.95
2023-03-26T05:03:31.799Z,51.84
2023-03-26T05:08:33.333Z,51.68
2023-03-26T05:13:26.956Z,51.43
2023-03-26T05:18:21.389Z,51.54
2023-03-26T05:23:18.100Z,42.25
2023-03-26T05:28:20.117Z,39.33
2023-03-26T05:33:20.232Z,38.13
2023-03-26T05:38:22.571Z,39.80
2023-03-26T05:43:16.670Z,44.92
2023-03-26T05:48:18.806Z,45.71
2023-03-26T05:53:12.088Z,46.49
2023-03-26T05:58:10.761Z,46.95
2023-03-26T06:03:16.937Z,46.21
2023-03-26T06:08:33.574Z,46.85
2023-03-26T06:13:26.575Z,47.04
2023-03-26T06:18:20.109Z,47.92
2023-03-26T06:23:39.769Z,44.83
2023-03-26T06:28:55.901Z,42.65
2023-03-26T06:34:11.207Z,41.85
2023-03-26T06:39:07.859Z,42.17
2023-03-26T06:44:05.968Z,43.90
2023-03-26T06:49:34.480Z,43.69
2023-03-26T06:54:44.251Z,41.82
2023-03-26T07:00:16.924Z,43.33
2023-03-26T07:05:29.115Z,43.46
2023-03-26T07:10:40.209Z,43.44
2023-03-26T07:15:51.540Z,42.65
2023-03-26T07:21:08.955Z,42.87
2023-03-26T07:26:32.037Z,43.25
2023-03-26T07:31:46.742Z,43.36
2023-03-26T07:37:26.764Z,43.53
2023-03-26T07:43:07.513Z,43.86
2023-03-26T07:48:21.903Z,44.21
2023-03-26T07:53:36.031Z,44.44
2023-03-26T07:59:01.753Z,44.67
2023-03-26T08:04:38.893Z,44.76
2023-03-26T08:10:23.925Z,44.94
2023-03-26T08:15:59.622Z,45.22
2023-03-26T08:21:04.658Z,45.52
2023-03-26T08:25:57.164Z,46.18
2023-03-26T08:30:50.869Z,45.99
2023-03-26T08:35:45.369Z,46.24
2023-03-26T08:40:40.492Z,46.32
2023-03-26T08:46:04.101Z,45.90
2023-03-26T08:51:40.449Z,45.98
2023-03-26T08:56:46.154Z,45.72
2023-03-26T09:02:05.691Z,46.08
2023-03-26T09:07:07.169Z,46.11
2023-03-26T09:12:11.596Z,46.46
2023-03-26T09:17:28.710Z,46.16
2023-03-26T09:22:28.340Z,46.71
2023-03-26T09:27:59.285Z,46.47
2023-03-26T09:33:18.092Z,46.42
2023-03-26T09:38:21.989Z,47.13
2023-03-26T09:43:41.894Z,46.47
2023-03-26T09:49:17.620Z,47.06
2023-03-26T09:54:22.549Z,44.61
2023-03-26T09:59:37.412Z,43.99
2023-03-26T10:04:43.706Z,44.72
2023-03-26T10:10:18.275Z,44.59
2023-03-26T10:15:32.393Z,45.90
2023-03-26T10:20:54.646Z,46.09
2023-03-26T10:26:11.550Z,46.60
2023-03-26T10:31:40.458Z,46.28
2023-03-26T10:36:37.448Z,46.17
2023-03-26T10:42:02.920Z,46.49
2023-03-26T10:47:20.137Z,47.48
2023-03-26T10:52:19.076Z,48.77
2023-03-26T10:57:43.909Z,49.39
2023-03-26T11:02:47.532Z,48.72
2023-03-26T11:07:45.690Z,49.05
2023-03-26T11:12:59.728Z,48.68
2023-03-26T11:18:14.554Z,46.73
2023-03-26T11:23:16.524Z,47.14
2023-03-26T11:28:16.737Z,42.61
2023-03-26T11:33:17.554Z,45.94
2023-03-26T11:38:23.160Z,46.18
2023-03-26T11:43:17.657Z,43.71
2023-03-26T11:48:32.561Z,45.91
2023-03-26T11:53:30.566Z,45.98
2023-03-26T11:58:52.088Z,45.85
2023-03-26T12:04:04.096Z,46.55
2023-03-26T12:08:57.820Z,47.21
2023-03-26T12:14:18.982Z,47.77
2023-03-26T12:19:20.289Z,48.14
2023-03-26T12:24:43.398Z,49.08
2023-03-26T12:29:37.164Z,49.34
2023-03-26T12:34:36.286Z,50.21
2023-03-26T12:40:07.671Z,50.75
2023-03-26T12:44:59.139Z,51.03
2023-03-26T12:49:56.997Z,51.35
2023-03-26T12:55:12.093Z,51.57
2023-03-26T13:00:39.760Z,52.01
2023-03-26T13:05:41.365Z,51.98
2023-03-26T13:10:59.266Z,52.64
2023-03-26T13:15:54.640Z,52.91
2023-03-26T13:21:10.260Z,52.96
2023-03-26T13:26:17.778Z,53.18
2023-03-26T13:31:34.871Z,52.67
2023-03-26T13:36:44.158Z,53.04
2023-03-26T13:41:54.942Z,52.98
2023-03-26T13:47:01.638Z,53.91
2023-03-26T13:52:23.059Z,53.35
2023-03-26T13:57:39.458Z,53.14
2023-03-26T14:02:42.240Z,53.15
2023-03-26T14:07:43.511Z,53.60
2023-03-26T14:12:44.293Z,53.55
2023-03-26T14:17:46.738Z,53.40
2023-03-26T14:23:01.614Z,54.33
2023-03-26T14:28:16.262Z,54.92
2023-03-26T14:33:28.288Z,54.76
2023-03-26T14:39:11.127Z,54.93
2023-03-26T14:44:57.201Z,55.07
2023-03-26T14:50:09.344Z,54.94
2023-03-26T14:55:08.274Z,55.24
2023-03-26T15:00:15.952Z,55.24
2023-03-26T15:05:29.552Z,55.78
2023-03-26T15:10:43.620Z,55.67
2023-03-26T15:15:57.772Z,55.66
2023-03-26T15:20:56.782Z,55.46
2023-03-26T15:26:27.571Z,56.04
2023-03-26T15:31:47.984Z,55.78
2023-03-26T15:36:55.313Z,55.82
2023-03-26T15:41:56.169Z,55.90
2023-03-26T15:47:01.094Z,56.56
2023-03-26T15:52:09.288Z,56.93
2023-03-26T15:57:34.486Z,56.86
2023-03-26T16:02:35.434Z,56.47
2023-03-26T16:08:15.555Z,56.72
2023-03-26T16:13:17.533Z,56.70
2023-03-26T16:18:15.695Z,56.80
2023-03-26T16:23:27.779Z,57.10
2023-03-26T16:28:28.215Z,57.87
2023-03-26T16:33:36.865Z,57.12
2023-03-26T16:38:56.243Z,57.44
2023-03-26T16:44:14.558Z,57.06
2023-03-26T16:49:23.470Z,57.46
2023-03-26T16:54:29.695Z,56.50
2023-03-26T17:00:07.872Z,56.44
2023-03-26T17:05:21.275Z,56.67
2023-03-26T17:10:32.753Z,56.57
2023-03-26T17:15:41.543Z,56.10
2023-03-26T17:21:13.397Z,55.83
2023-03-26T17:26:05.345Z,57.13
2023-03-26T17:31:32.462Z,56.72
2023-03-26T17:36:40.682Z,57.97
2023-03-26T17:41:55.683Z,58.79
2023-03-26T17:46:57.296Z,56.33
2023-03-26T17:52:12.271Z,56.05
2023-03-26T17:57:24.002Z,56.80
2023-03-26T18:02:21.596Z,56.73
2023-03-26T18:07:35.960Z,59.53
2023-03-26T18:12:52.141Z,60.73
2023-03-26T18:17:47.370Z,61.70
2023-03-26T18:22:40.573Z,61.04
2023-03-26T18:27:38.886Z,60.56
2023-03-26T18:32:34.139Z,61.04
2023-03-26T18:37:30.943Z,60.88
2023-03-26T18:42:25.323Z,60.93
2023-03-26T18:47:20.591Z,60.87
2023-03-26T18:52:23.000Z,60.84
2023-03-26T18:57:22.744Z,60.96
2023-03-26T19:02:17.304Z,60.87
2023-03-26T19:07:16.885Z,61.23
2023-03-26T19:12:23.852Z,61.21
2023-03-26T19:17:17.499Z,60.91
2023-03-26T19:22:29.509Z,60.83
2023-03-26T19:27:24.063Z,61.00
2023-03-26T19:32:28.328Z,57.54
2023-03-26T19:37:50.057Z,57.13
2023-03-26T19:42:45.007Z,57.04
2023-03-26T19:47:50.351Z,56.72
2023-03-26T19:52:46.820Z,56.76
2023-03-26T19:57:40.270Z,56.71
2023-03-26T20:02:33.067Z,57.03
2023-03-26T20:07:35.621Z,57.01
2023-03-26T20:12:41.552Z,56.95
2023-03-26T20:17:35.558Z,56.76
2023-03-26T20:22:30.349Z,56.36
2023-03-26T20:27:23.797Z,56.49
2023-03-26T20:32:20.070Z,56.25
2023-03-26T20:37:13.550Z,56.46
2023-03-26T20:42:06.630Z,56.59
2023-03-26T20:46:59.187Z,56.36
2023-03-26T20:51:56.962Z,56.76
2023-03-26T20:56:49.212Z,56.47
2023-03-26T21:01:42.715Z,56.38
2023-03-26T21:06:36.828Z,59.30
2023-03-26T21:11:56.403Z,58.57
2023-03-26T21:16:50.260Z,57.84
2023-03-26T21:21:56.642Z,57.10
2023-03-26T21:27:15.560Z,57.97
2023-03-26T21:32:11.749Z,56.63
2023-03-26T21:37:05.139Z,56.63
2023-03-26T21:42:05.104Z,57.02
2023-03-26T21:46:59.901Z,56.56
2023-03-26T21:51:57.433Z,56.77
2023-03-26T21:57:16.559Z,57.36
2023-03-26T22:02:40.688Z,56.87
2023-03-26T22:07:43.885Z,57.43
2023-03-26T22:12:37.738Z,57.65
2023-03-26T22:17:33.076Z,57.37
2023-03-26T22:22:26.840Z,57.36
2023-03-26T22:27:19.338Z,57.77
2023-03-26T22:32:12.437Z,57.62
2023-03-26T22:37:06.286Z,57.36
2023-03-26T22:42:02.884Z,58.06
2023-03-26T22:46:57.725Z,58.12
2023-03-26T22:51:52.013Z,57.70
2023-03-26T22:56:46.561Z,58.01
2023-03-26T23:01:40.701Z,58.18
2023-03-26T23:06:34.215Z,58.65
2023-03-26T23:11:27.536Z,58.26
2023-03-26T23:16:22.397Z,59.21
2023-03-26T23:21:21.859Z,58.70
2023-03-26T23:26:15.484Z,58.57
2023-03-26T23:31:10.187Z,58.91
2023-03-26T23:36:07.565Z,59.18
2023-03-26T23:41:00.449Z,59.77
2023-03-26T23:45:53.504Z,59.37
2023-03-26T23:50:50.624Z,59.66
2023-03-26T23:55:48.485Z,59.58
